sensor_id;sensor_type;location;lat;lon;timestamp;P1;durP1;ratioP1;P2;durP2;ratioP2
17947;SDS011;9099;47.958;11.366;2023-10-31T00:01:32;1.08;;;0.20;;
17947;SDS011;9099;47.958;11.366;2023-10-31T00:03:59;0.10;;;0.10;;
17947;SDS011;9099;47.958;11.366;2023-10-31T00:06:27;0.20;;;0.17;;
17947;SDS011;9099;47.958;11.366;2023-10-31T00:08:54;0.17;;;0.13;;
17947;SDS011;9099;47.958;11.366;2023-10-31T00:11:21;0.28;;;0.17;;
17947;SDS011;9099;47.958;11.366;2023-10-31T00:13:48;0.10;;;0.10;;
17947;SDS011;9099;47.958;11.366;2023-10-31T00:16:15;0.10;;;0.10;;
17947;SDS011;9099;47.958;11.366;2023-10-31T00:18:41;0.22;;;0.20;;
17947;SDS011;9099;47.958;11.366;2023-10-31T00:21:08;0.40;;;0.10;;
17947;SDS011;9099;47.958;11.366;2023-10-31T00:23:43;0.20;;;0.20;;
17947;SDS011;9099;47.958;11.366;2023-10-31T00:26:10;0.17;;;0.17;;
17947;SDS011;9099;47.958;11.366;2023-10-31T00:28:37;0.22;;;0.22;;
17947;SDS011;9099;47.958;11.366;2023-10-31T00:31:04;0.20;;;0.20;;
17947;SDS011;9099;47.958;11.366;2023-10-31T00:33:32;0.30;;;0.30;;
17947;SDS011;9099;47.958;11.366;2023-10-31T00:35:58;0.30;;;0.30;;
17947;SDS011;9099;47.958;11.366;2023-10-31T00:38:26;0.50;;;0.30;;
17947;SDS011;9099;47.958;11.366;2023-10-31T00:40:54;0.20;;;0.20;;
17947;SDS011;9099;47.958;11.366;2023-10-31T00:43:21;0.20;;;0.20;;
17947;SDS011;9099;47.958;11.366;2023-10-31T00:45:47;0.63;;;0.10;;
17947;SDS011;9099;47.958;11.366;2023-10-31T00:48:14;0.30;;;0.28;;
17947;SDS011;9099;47.958;11.366;2023-10-31T00:50:41;0.20;;;0.20;;
17947;SDS011;9099;47.958;11.366;2023-10-31T00:53:09;0.20;;;0.20;;
17947;SDS011;9099;47.958;11.366;2023-10-31T00:55:36;0.28;;;0.20;;
17947;SDS011;9099;47.958;11.366;2023-10-31T00:58:04;0.20;;;0.10;;
17947;SDS011;9099;47.958;11.366;2023-10-31T01:00:31;0.10;;;0.10;;
17947;SDS011;9099;47.958;11.366;2023-10-31T01:02:59;0.10;;;0.10;;
17947;SDS011;9099;47.958;11.366;2023-10-31T01:05:26;0.17;;;0.17;;
17947;SDS011;9099;47.958;11.366;2023-10-31T01:07:53;0.22;;;0.10;;
17947;SDS011;9099;47.958;11.366;2023-10-31T01:10:20;0.13;;;0.10;;
17947;SDS011;9099;47.958;11.366;2023-10-31T01:12:47;0.22;;;0.13;;
17947;SDS011;9099;47.958;11.366;2023-10-31T01:15:15;0.13;;;0.10;;
17947;SDS011;9099;47.958;11.366;2023-10-31T01:17:42;0.22;;;0.10;;
17947;SDS011;9099;47.958;11.366;2023-10-31T01:20:09;0.10;;;0.10;;
17947;SDS011;9099;47.958;11.366;2023-10-31T01:22:37;0.00;;;0.00;;
17947;SDS011;9099;47.958;11.366;2023-10-31T01:25:04;0.13;;;0.10;;
17947;SDS011;9099;47.958;11.366;2023-10-31T01:27:31;0.50;;;0.30;;
17947;SDS011;9099;47.958;11.366;2023-10-31T01:29:58;0.10;;;0.10;;
17947;SDS011;9099;47.958;11.366;2023-10-31T01:32:26;0.10;;;0.00;;
17947;SDS011;9099;47.958;11.366;2023-10-31T01:34:53;0.20;;;0.10;;
17947;SDS011;9099;47.958;11.366;2023-10-31T01:37:20;0.10;;;0.10;;
17947;SDS011;9099;47.958;11.366;2023-10-31T01:39:47;0.08;;;0.08;;
17947;SDS011;9099;47.958;11.366;2023-10-31T01:42:13;0.00;;;0.00;;
17947;SDS011;9099;47.958;11.366;2023-10-31T01:44:41;0.00;;;0.00;;
17947;SDS011;9099;47.958;11.366;2023-10-31T01:47:08;0.10;;;0.10;;
17947;SDS011;9099;47.958;11.366;2023-10-31T01:49:36;0.10;;;0.10;;
17947;SDS011;9099;47.958;11.366;2023-10-31T01:52:04;0.00;;;0.00;;
17947;SDS011;9099;47.958;11.366;2023-10-31T01:54:32;0.05;;;0.00;;
17947;SDS011;9099;47.958;11.366;2023-10-31T01:57:00;0.00;;;0.00;;
17947;SDS011;9099;47.958;11.366;2023-10-31T01:59:27;0.15;;;0.00;;
17947;SDS011;9099;47.958;11.366;2023-10-31T02:01:54;0.13;;;0.13;;
17947;SDS011;9099;47.958;11.366;2023-10-31T02:04:22;0.00;;;0.00;;
17947;SDS011;9099;47.958;11.366;2023-10-31T02:06:51;0.85;;;0.00;;
17947;SDS011;9099;47.958;11.366;2023-10-31T02:09:17;0.50;;;0.00;;
17947;SDS011;9099;47.958;11.366;2023-10-31T02:11:44;0.03;;;0.00;;
17947;SDS011;9099;47.958;11.366;2023-10-31T02:14:11;0.00;;;0.00;;
17947;SDS011;9099;47.958;11.366;2023-10-31T02:16:38;0.00;;;0.00;;
17947;SDS011;9099;47.958;11.366;2023-10-31T02:19:05;0.00;;;0.00;;
17947;SDS011;9099;47.958;11.366;2023-10-31T02:21:33;0.10;;;0.08;;
17947;SDS011;9099;47.958;11.366;2023-10-31T02:24:02;0.10;;;0.00;;
17947;SDS011;9099;47.958;11.366;2023-10-31T02:26:29;0.10;;;0.10;;
17947;SDS011;9099;47.958;11.366;2023-10-31T02:28:56;0.08;;;0.03;;
17947;SDS011;9099;47.958;11.366;2023-10-31T02:31:23;0.10;;;0.03;;
17947;SDS011;9099;47.958;11.366;2023-10-31T02:33:50;0.15;;;0.10;;
17947;SDS011;9099;47.958;11.366;2023-10-31T02:36:17;0.05;;;0.00;;
17947;SDS011;9099;47.958;11.366;2023-10-31T02:38:44;0.00;;;0.00;;
17947;SDS011;9099;47.958;11.366;2023-10-31T02:41:12;0.10;;;0.10;;
17947;SDS011;9099;47.958;11.366;2023-10-31T02:43:40;0.28;;;0.20;;
17947;SDS011;9099;47.958;11.366;2023-10-31T02:46:07;0.08;;;0.08;;
17947;SDS011;9099;47.958;11.366;2023-10-31T02:48:37;0.08;;;0.00;;
17947;SDS011;9099;47.958;11.366;2023-10-31T02:51:05;0.00;;;0.00;;
17947;SDS011;9099;47.958;11.366;2023-10-31T02:53:32;0.00;;;0.00;;
17947;SDS011;9099;47.958;11.366;2023-10-31T02:55:59;0.10;;;0.00;;
17947;SDS011;9099;47.958;11.366;2023-10-31T02:58:27;0.32;;;0.00;;
17947;SDS011;9099;47.958;11.366;2023-10-31T03:00:54;0.10;;;0.00;;
17947;SDS011;9099;47.958;11.366;2023-10-31T03:03:21;0.00;;;0.00;;
17947;SDS011;9099;47.958;11.366;2023-10-31T03:05:48;0.00;;;0.00;;
17947;SDS011;9099;47.958;11.366;2023-10-31T03:08:14;0.00;;;0.00;;
17947;SDS011;9099;47.958;11.366;2023-10-31T03:10:45;0.80;;;0.00;;
17947;SDS011;9099;47.958;11.366;2023-10-31T03:13:14;0.15;;;0.10;;
17947;SDS011;9099;47.958;11.366;2023-10-31T03:15:43;0.10;;;0.10;;
17947;SDS011;9099;47.958;11.366;2023-10-31T03:18:10;0.22;;;0.10;;
17947;SDS011;9099;47.958;11.366;2023-10-31T03:20:36;0.00;;;0.00;;
17947;SDS011;9099;47.958;11.366;2023-10-31T03:23:03;0.10;;;0.00;;
17947;SDS011;9099;47.958;11.366;2023-10-31T03:25:30;0.00;;;0.00;;
17947;SDS011;9099;47.958;11.366;2023-10-31T03:27:57;0.10;;;0.05;;
17947;SDS011;9099;47.958;11.366;2023-10-31T03:30:24;0.20;;;0.00;;
17947;SDS011;9099;47.958;11.366;2023-10-31T03:32:52;0.65;;;0.28;;
17947;SDS011;9099;47.958;11.366;2023-10-31T03:35:19;1.35;;;0.10;;
17947;SDS011;9099;47.958;11.366;2023-10-31T03:37:46;0.00;;;0.00;;
17947;SDS011;9099;47.958;11.366;2023-10-31T03:40:13;0.57;;;0.05;;
17947;SDS011;9099;47.958;11.366;2023-10-31T03:42:40;0.05;;;0.05;;
17947;SDS011;9099;47.958;11.366;2023-10-31T03:45:07;0.10;;;0.10;;
17947;SDS011;9099;47.958;11.366;2023-10-31T03:47:34;0.75;;;0.10;;
17947;SDS011;9099;47.958;11.366;2023-10-31T03:50:03;0.47;;;0.30;;
17947;SDS011;9099;47.958;11.366;2023-10-31T03:52:30;2.30;;;0.30;;
17947;SDS011;9099;47.958;11.366;2023-10-31T03:54:57;0.75;;;0.13;;
17947;SDS011;9099;47.958;11.366;2023-10-31T03:57:24;0.52;;;0.22;;
17947;SDS011;9099;47.958;11.366;2023-10-31T03:59:51;0.32;;;0.30;;
17947;SDS011;9099;47.958;11.366;2023-10-31T04:02:17;0.30;;;0.30;;
17947;SDS011;9099;47.958;11.366;2023-10-31T04:04:44;0.10;;;0.10;;
17947;SDS011;9099;47.958;11.366;2023-10-31T04:07:13;0.82;;;0.30;;
17947;SDS011;9099;47.958;11.366;2023-10-31T04:09:40;0.20;;;0.20;;
17947;SDS011;9099;47.958;11.366;2023-10-31T04:12:07;0.55;;;0.20;;
17947;SDS011;9099;47.958;11.366;2023-10-31T04:14:34;0.47;;;0.10;;
17947;SDS011;9099;47.958;11.366;2023-10-31T04:17:01;0.20;;;0.20;;
17947;SDS011;9099;47.958;11.366;2023-10-31T04:19:28;0.63;;;0.30;;
17947;SDS011;9099;47.958;11.366;2023-10-31T04:21:55;0.57;;;0.20;;
17947;SDS011;9099;47.958;11.366;2023-10-31T04:24:23;0.20;;;0.20;;
17947;SDS011;9099;47.958;11.366;2023-10-31T04:26:50;0.47;;;0.20;;
17947;SDS011;9099;47.958;11.366;2023-10-31T04:29:16;0.10;;;0.10;;
17947;SDS011;9099;47.958;11.366;2023-10-31T04:31:43;0.32;;;0.10;;
17947;SDS011;9099;47.958;11.366;2023-10-31T04:34:10;1.95;;;0.40;;
17947;SDS011;9099;47.958;11.366;2023-10-31T04:36:38;0.30;;;0.10;;
17947;SDS011;9099;47.958;11.366;2023-10-31T04:39:05;0.47;;;0.22;;
17947;SDS011;9099;47.958;11.366;2023-10-31T04:41:33;0.65;;;0.38;;
17947;SDS011;9099;47.958;11.366;2023-10-31T04:44:00;1.00;;;0.20;;
17947;SDS011;9099;47.958;11.366;2023-10-31T04:46:28;0.50;;;0.20;;
17947;SDS011;9099;47.958;11.366;2023-10-31T04:48:54;0.30;;;0.20;;
17947;SDS011;9099;47.958;11.366;2023-10-31T04:51:21;1.13;;;0.30;;
17947;SDS011;9099;47.958;11.366;2023-10-31T04:53:48;0.28;;;0.20;;
17947;SDS011;9099;47.958;11.366;2023-10-31T04:56:15;0.95;;;0.10;;
17947;SDS011;9099;47.958;11.366;2023-10-31T04:58:44;1.13;;;0.40;;
17947;SDS011;9099;47.958;11.366;2023-10-31T05:01:11;0.73;;;0.40;;
17947;SDS011;9099;47.958;11.366;2023-10-31T05:03:39;0.70;;;0.30;;
17947;SDS011;9099;47.958;11.366;2023-10-31T05:06:06;2.35;;;0.40;;
17947;SDS011;9099;47.958;11.366;2023-10-31T05:08:33;0.43;;;0.40;;
17947;SDS011;9099;47.958;11.366;2023-10-31T05:11:00;0.47;;;0.30;;
17947;SDS011;9099;47.958;11.366;2023-10-31T05:13:27;0.22;;;0.22;;
17947;SDS011;9099;47.958;11.366;2023-10-31T05:15:55;2.90;;;0.20;;
17947;SDS011;9099;47.958;11.366;2023-10-31T05:18:22;0.70;;;0.28;;
17947;SDS011;9099;47.958;11.366;2023-10-31T05:20:49;0.38;;;0.20;;
17947;SDS011;9099;47.958;11.366;2023-10-31T05:23:16;0.50;;;0.50;;
17947;SDS011;9099;47.958;11.366;2023-10-31T05:25:42;0.60;;;0.40;;
17947;SDS011;9099;47.958;11.366;2023-10-31T05:28:09;0.22;;;0.20;;
17947;SDS011;9099;47.958;11.366;2023-10-31T05:30:36;1.42;;;0.47;;
17947;SDS011;9099;47.958;11.366;2023-10-31T05:33:04;0.20;;;0.20;;
17947;SDS011;9099;47.958;11.366;2023-10-31T05:35:31;1.42;;;0.30;;
17947;SDS011;9099;47.958;11.366;2023-10-31T05:37:59;0.10;;;0.10;;
17947;SDS011;9099;47.958;11.366;2023-10-31T05:40:26;0.55;;;0.20;;
17947;SDS011;9099;47.958;11.366;2023-10-31T05:42:54;0.43;;;0.28;;
17947;SDS011;9099;47.958;11.366;2023-10-31T05:45:22;0.25;;;0.20;;
17947;SDS011;9099;47.958;11.366;2023-10-31T05:47:49;1.17;;;0.30;;
17947;SDS011;9099;47.958;11.366;2023-10-31T05:50:17;0.60;;;0.40;;
17947;SDS011;9099;47.958;11.366;2023-10-31T05:52:44;0.90;;;0.30;;
17947;SDS011;9099;47.958;11.366;2023-10-31T05:55:11;0.35;;;0.35;;
17947;SDS011;9099;47.958;11.366;2023-10-31T05:57:37;0.20;;;0.17;;
17947;SDS011;9099;47.958;11.366;2023-10-31T06:00:05;0.82;;;0.30;;
17947;SDS011;9099;47.958;11.366;2023-10-31T06:02:33;0.40;;;0.22;;
17947;SDS011;9099;47.958;11.366;2023-10-31T06:05:00;0.43;;;0.22;;
17947;SDS011;9099;47.958;11.366;2023-10-31T06:07:27;0.70;;;0.43;;
17947;SDS011;9099;47.958;11.366;2023-10-31T06:09:54;0.43;;;0.30;;
17947;SDS011;9099;47.958;11.366;2023-10-31T06:12:20;0.73;;;0.20;;
17947;SDS011;9099;47.958;11.366;2023-10-31T06:14:47;0.30;;;0.30;;
17947;SDS011;9099;47.958;11.366;2023-10-31T06:17:14;0.22;;;0.20;;
17947;SDS011;9099;47.958;11.366;2023-10-31T06:19:41;0.40;;;0.20;;
17947;SDS011;9099;47.958;11.366;2023-10-31T06:22:10;0.88;;;0.35;;
17947;SDS011;9099;47.958;11.366;2023-10-31T06:24:38;0.75;;;0.22;;
17947;SDS011;9099;47.958;11.366;2023-10-31T06:27:06;0.40;;;0.30;;
17947;SDS011;9099;47.958;11.366;2023-10-31T06:29:33;0.15;;;0.15;;
17947;SDS011;9099;47.958;11.366;2023-10-31T06:31:59;0.20;;;0.20;;
17947;SDS011;9099;47.958;11.366;2023-10-31T06:34:27;0.38;;;0.15;;
17947;SDS011;9099;47.958;11.366;2023-10-31T06:36:54;0.52;;;0.30;;
17947;SDS011;9099;47.958;11.366;2023-10-31T06:39:21;0.20;;;0.10;;
17947;SDS011;9099;47.958;11.366;2023-10-31T06:41:50;0.52;;;0.20;;
17947;SDS011;9099;47.958;11.366;2023-10-31T06:44:21;0.63;;;0.22;;
17947;SDS011;9099;47.958;11.366;2023-10-31T06:46:48;1.83;;;0.35;;
17947;SDS011;9099;47.958;11.366;2023-10-31T06:49:15;0.85;;;0.30;;
17947;SDS011;9099;47.958;11.366;2023-10-31T06:51:42;0.50;;;0.20;;
17947;SDS011;9099;47.958;11.366;2023-10-31T06:54:08;0.85;;;0.30;;
17947;SDS011;9099;47.958;11.366;2023-10-31T06:56:35;0.65;;;0.40;;
17947;SDS011;9099;47.958;11.366;2023-10-31T06:59:04;0.28;;;0.28;;
17947;SDS011;9099;47.958;11.366;2023-10-31T07:01:31;1.02;;;0.30;;
17947;SDS011;9099;47.958;11.366;2023-10-31T07:03:58;0.77;;;0.20;;
17947;SDS011;9099;47.958;11.366;2023-10-31T07:06:25;0.30;;;0.20;;
17947;SDS011;9099;47.958;11.366;2023-10-31T07:08:51;0.25;;;0.20;;
17947;SDS011;9099;47.958;11.366;2023-10-31T07:11:18;0.40;;;0.40;;
17947;SDS011;9099;47.958;11.366;2023-10-31T07:13:45;1.23;;;0.25;;
17947;SDS011;9099;47.958;11.366;2023-10-31T07:16:13;0.32;;;0.30;;
17947;SDS011;9099;47.958;11.366;2023-10-31T07:18:40;1.63;;;0.30;;
17947;SDS011;9099;47.958;11.366;2023-10-31T07:21:07;0.50;;;0.35;;
17947;SDS011;9099;47.958;11.366;2023-10-31T07:23:34;0.63;;;0.50;;
17947;SDS011;9099;47.958;11.366;2023-10-31T07:26:01;2.28;;;1.00;;
17947;SDS011;9099;47.958;11.366;2023-10-31T07:28:28;0.52;;;0.35;;
17947;SDS011;9099;47.958;11.366;2023-10-31T07:30:54;1.23;;;0.32;;
17947;SDS011;9099;47.958;11.366;2023-10-31T07:33:23;0.30;;;0.30;;
17947;SDS011;9099;47.958;11.366;2023-10-31T07:35:49;0.95;;;0.50;;
17947;SDS011;9099;47.958;11.366;2023-10-31T07:38:16;1.83;;;0.60;;
17947;SDS011;9099;47.958;11.366;2023-10-31T07:40:43;1.60;;;0.40;;
17947;SDS011;9099;47.958;11.366;2023-10-31T07:43:10;0.82;;;0.40;;
17947;SDS011;9099;47.958;11.366;2023-10-31T07:45:37;1.30;;;0.38;;
17947;SDS011;9099;47.958;11.366;2023-10-31T07:48:04;0.60;;;0.60;;
17947;SDS011;9099;47.958;11.366;2023-10-31T07:50:33;1.40;;;0.43;;
17947;SDS011;9099;47.958;11.366;2023-10-31T07:52:59;0.35;;;0.35;;
17947;SDS011;9099;47.958;11.366;2023-10-31T07:55:26;1.70;;;0.65;;
17947;SDS011;9099;47.958;11.366;2023-10-31T07:57:53;2.65;;;0.55;;
17947;SDS011;9099;47.958;11.366;2023-10-31T08:00:20;0.85;;;0.50;;
17947;SDS011;9099;47.958;11.366;2023-10-31T08:02:47;0.52;;;0.40;;
17947;SDS011;9099;47.958;11.366;2023-10-31T08:05:14;0.45;;;0.40;;
17947;SDS011;9099;47.958;11.366;2023-10-31T08:07:42;0.82;;;0.50;;
17947;SDS011;9099;47.958;11.366;2023-10-31T08:10:09;0.82;;;0.40;;
17947;SDS011;9099;47.958;11.366;2023-10-31T08:12:36;1.88;;;0.63;;
17947;SDS011;9099;47.958;11.366;2023-10-31T08:15:03;1.17;;;0.40;;
17947;SDS011;9099;47.958;11.366;2023-10-31T08:17:31;1.95;;;0.50;;
17947;SDS011;9099;47.958;11.366;2023-10-31T08:19:58;2.22;;;0.80;;
17947;SDS011;9099;47.958;11.366;2023-10-31T08:22:25;1.80;;;1.05;;
17947;SDS011;9099;47.958;11.366;2023-10-31T08:24:53;0.47;;;0.43;;
17947;SDS011;9099;47.958;11.366;2023-10-31T08:27:20;1.52;;;0.52;;
17947;SDS011;9099;47.958;11.366;2023-10-31T08:29:46;1.35;;;0.60;;
17947;SDS011;9099;47.958;11.366;2023-10-31T08:32:13;1.52;;;1.20;;
17947;SDS011;9099;47.958;11.366;2023-10-31T08:34:41;1.33;;;0.60;;
17947;SDS011;9099;47.958;11.366;2023-10-31T08:37:08;0.75;;;0.50;;
17947;SDS011;9099;47.958;11.366;2023-10-31T08:39:35;1.20;;;0.52;;
17947;SDS011;9099;47.958;11.366;2023-10-31T08:42:03;2.58;;;0.60;;
17947;SDS011;9099;47.958;11.366;2023-10-31T08:44:30;1.90;;;0.68;;
17947;SDS011;9099;47.958;11.366;2023-10-31T08:46:58;1.05;;;0.57;;
17947;SDS011;9099;47.958;11.366;2023-10-31T08:49:26;0.82;;;0.52;;
17947;SDS011;9099;47.958;11.366;2023-10-31T08:51:52;0.85;;;0.40;;
17947;SDS011;9099;47.958;11.366;2023-10-31T08:54:19;0.70;;;0.30;;
17947;SDS011;9099;47.958;11.366;2023-10-31T08:56:46;1.05;;;0.73;;
17947;SDS011;9099;47.958;11.366;2023-10-31T08:59:14;0.70;;;0.52;;
17947;SDS011;9099;47.958;11.366;2023-10-31T09:01:41;0.88;;;0.70;;
17947;SDS011;9099;47.958;11.366;2023-10-31T09:04:08;0.85;;;0.60;;
17947;SDS011;9099;47.958;11.366;2023-10-31T09:06:35;1.65;;;0.80;;
17947;SDS011;9099;47.958;11.366;2023-10-31T09:09:02;1.33;;;0.68;;
17947;SDS011;9099;47.958;11.366;2023-10-31T09:11:30;2.15;;;0.70;;
17947;SDS011;9099;47.958;11.366;2023-10-31T09:13:56;1.23;;;0.65;;
17947;SDS011;9099;47.958;11.366;2023-10-31T09:16:25;1.50;;;0.52;;
17947;SDS011;9099;47.958;11.366;2023-10-31T09:18:51;0.65;;;0.40;;
17947;SDS011;9099;47.958;11.366;2023-10-31T09:21:18;3.20;;;0.50;;
17947;SDS011;9099;47.958;11.366;2023-10-31T09:23:45;1.23;;;0.85;;
17947;SDS011;9099;47.958;11.366;2023-10-31T09:26:12;1.58;;;0.68;;
17947;SDS011;9099;47.958;11.366;2023-10-31T09:28:39;1.13;;;0.50;;
17947;SDS011;9099;47.958;11.366;2023-10-31T09:31:14;0.57;;;0.50;;
17947;SDS011;9099;47.958;11.366;2023-10-31T09:33:42;0.55;;;0.43;;
17947;SDS011;9099;47.958;11.366;2023-10-31T09:36:09;3.17;;;0.50;;
17947;SDS011;9099;47.958;11.366;2023-10-31T09:38:37;1.77;;;0.50;;
17947;SDS011;9099;47.958;11.366;2023-10-31T09:41:05;1.55;;;0.45;;
17947;SDS011;9099;47.958;11.366;2023-10-31T09:43:32;1.52;;;0.70;;
17947;SDS011;9099;47.958;11.366;2023-10-31T09:45:59;1.80;;;0.40;;
17947;SDS011;9099;47.958;11.366;2023-10-31T09:48:26;1.27;;;0.50;;
17947;SDS011;9099;47.958;11.366;2023-10-31T09:50:54;0.70;;;0.50;;
17947;SDS011;9099;47.958;11.366;2023-10-31T09:53:22;2.53;;;0.70;;
17947;SDS011;9099;47.958;11.366;2023-10-31T09:55:50;0.43;;;0.40;;
17947;SDS011;9099;47.958;11.366;2023-10-31T09:58:19;1.33;;;0.50;;
17947;SDS011;9099;47.958;11.366;2023-10-31T10:00:45;1.35;;;0.95;;
17947;SDS011;9099;47.958;11.366;2023-10-31T10:03:12;1.27;;;0.50;;
17947;SDS011;9099;47.958;11.366;2023-10-31T10:05:40;2.15;;;0.60;;
17947;SDS011;9099;47.958;11.366;2023-10-31T10:08:11;1.30;;;0.80;;
17947;SDS011;9099;47.958;11.366;2023-10-31T10:10:38;1.55;;;0.52;;
17947;SDS011;9099;47.958;11.366;2023-10-31T10:13:04;0.88;;;0.40;;
17947;SDS011;9099;47.958;11.366;2023-10-31T10:15:42;0.82;;;0.60;;
17947;SDS011;9099;47.958;11.366;2023-10-31T10:18:09;2.05;;;0.60;;
17947;SDS011;9099;47.958;11.366;2023-10-31T10:20:36;0.80;;;0.55;;
17947;SDS011;9099;47.958;11.366;2023-10-31T10:23:21;2.15;;;0.50;;
17947;SDS011;9099;47.958;11.366;2023-10-31T10:25:48;1.05;;;0.65;;
17947;SDS011;9099;47.958;11.366;2023-10-31T10:28:15;0.95;;;0.60;;
17947;SDS011;9099;47.958;11.366;2023-10-31T10:30:44;3.38;;;0.65;;
17947;SDS011;9099;47.958;11.366;2023-10-31T10:33:11;1.35;;;0.63;;
17947;SDS011;9099;47.958;11.366;2023-10-31T10:35:38;1.75;;;0.73;;
17947;SDS011;9099;47.958;11.366;2023-10-31T10:38:05;2.08;;;1.45;;
17947;SDS011;9099;47.958;11.366;2023-10-31T10:40:37;1.20;;;1.00;;
17947;SDS011;9099;47.958;11.366;2023-10-31T10:43:07;1.02;;;0.80;;
17947;SDS011;9099;47.958;11.366;2023-10-31T10:45:38;4.18;;;1.33;;
17947;SDS011;9099;47.958;11.366;2023-10-31T10:48:10;1.70;;;0.63;;
17947;SDS011;9099;47.958;11.366;2023-10-31T10:50:39;2.33;;;0.75;;
17947;SDS011;9099;47.958;11.366;2023-10-31T10:53:10;0.77;;;0.60;;
17947;SDS011;9099;47.958;11.366;2023-10-31T10:55:45;3.78;;;0.95;;
17947;SDS011;9099;47.958;11.366;2023-10-31T10:58:18;1.83;;;0.88;;
17947;SDS011;9099;47.958;11.366;2023-10-31T11:00:52;2.38;;;0.73;;
17947;SDS011;9099;47.958;11.366;2023-10-31T11:03:20;0.52;;;0.43;;
17947;SDS011;9099;47.958;11.366;2023-10-31T11:05:50;2.75;;;0.50;;
17947;SDS011;9099;47.958;11.366;2023-10-31T11:08:17;2.15;;;0.63;;
17947;SDS011;9099;47.958;11.366;2023-10-31T11:10:48;0.55;;;0.40;;
17947;SDS011;9099;47.958;11.366;2023-10-31T11:13:16;2.05;;;0.55;;
17947;SDS011;9099;47.958;11.366;2023-10-31T11:15:43;1.13;;;0.50;;
17947;SDS011;9099;47.958;11.366;2023-10-31T11:18:10;0.93;;;0.50;;
17947;SDS011;9099;47.958;11.366;2023-10-31T11:20:37;1.52;;;0.47;;
17947;SDS011;9099;47.958;11.366;2023-10-31T11:23:06;1.17;;;0.63;;
17947;SDS011;9099;47.958;11.366;2023-10-31T11:25:33;1.08;;;0.50;;
17947;SDS011;9099;47.958;11.366;2023-10-31T11:28:13;1.00;;;0.50;;
17947;SDS011;9099;47.958;11.366;2023-10-31T11:30:41;1.08;;;0.43;;
17947;SDS011;9099;47.958;11.366;2023-10-31T11:33:11;1.20;;;0.70;;
17947;SDS011;9099;47.958;11.366;2023-10-31T11:35:39;1.02;;;0.30;;
17947;SDS011;9099;47.958;11.366;2023-10-31T11:38:06;0.63;;;0.30;;
17947;SDS011;9099;47.958;11.366;2023-10-31T11:40:35;0.30;;;0.30;;
17947;SDS011;9099;47.958;11.366;2023-10-31T11:43:03;1.05;;;0.35;;
17947;SDS011;9099;47.958;11.366;2023-10-31T11:45:35;0.60;;;0.40;;
17947;SDS011;9099;47.958;11.366;2023-10-31T11:48:03;2.60;;;1.48;;
17947;SDS011;9099;47.958;11.366;2023-10-31T11:50:30;0.70;;;0.70;;
17947;SDS011;9099;47.958;11.366;2023-10-31T11:53:02;0.60;;;0.60;;
17947;SDS011;9099;47.958;11.366;2023-10-31T11:55:31;1.00;;;1.00;;
17947;SDS011;9099;47.958;11.366;2023-10-31T11:58:11;1.52;;;0.55;;
17947;SDS011;9099;47.958;11.366;2023-10-31T12:00:43;0.57;;;0.40;;
17947;SDS011;9099;47.958;11.366;2023-10-31T12:03:10;0.47;;;0.30;;
17947;SDS011;9099;47.958;11.366;2023-10-31T12:05:37;1.17;;;0.40;;
17947;SDS011;9099;47.958;11.366;2023-10-31T12:08:04;1.52;;;0.28;;
17947;SDS011;9099;47.958;11.366;2023-10-31T12:10:31;0.57;;;0.22;;
17947;SDS011;9099;47.958;11.366;2023-10-31T12:12:58;0.60;;;0.30;;
17947;SDS011;9099;47.958;11.366;2023-10-31T12:15:25;0.40;;;0.40;;
17947;SDS011;9099;47.958;11.366;2023-10-31T12:17:54;1.17;;;0.40;;
17947;SDS011;9099;47.958;11.366;2023-10-31T12:20:24;0.20;;;0.20;;
17947;SDS011;9099;47.958;11.366;2023-10-31T12:23:00;1.75;;;0.30;;
17947;SDS011;9099;47.958;11.366;2023-10-31T12:25:28;0.20;;;0.20;;
17947;SDS011;9099;47.958;11.366;2023-10-31T12:27:58;1.52;;;0.40;;
17947;SDS011;9099;47.958;11.366;2023-10-31T12:30:24;1.33;;;0.50;;
17947;SDS011;9099;47.958;11.366;2023-10-31T12:32:54;0.20;;;0.20;;
17947;SDS011;9099;47.958;11.366;2023-10-31T12:35:23;1.15;;;0.50;;
17947;SDS011;9099;47.958;11.366;2023-10-31T12:37:51;0.85;;;0.50;;
17947;SDS011;9099;47.958;11.366;2023-10-31T12:40:19;0.20;;;0.20;;
17947;SDS011;9099;47.958;11.366;2023-10-31T12:42:48;0.20;;;0.20;;
17947;SDS011;9099;47.958;11.366;2023-10-31T12:45:15;0.35;;;0.22;;
17947;SDS011;9099;47.958;11.366;2023-10-31T12:47:43;0.20;;;0.20;;
17947;SDS011;9099;47.958;11.366;2023-10-31T12:50:13;0.50;;;0.30;;
17947;SDS011;9099;47.958;11.366;2023-10-31T12:52:45;0.45;;;0.30;;
17947;SDS011;9099;47.958;11.366;2023-10-31T12:55:16;0.35;;;0.20;;
17947;SDS011;9099;47.958;11.366;2023-10-31T12:57:44;0.10;;;0.10;;
17947;SDS011;9099;47.958;11.366;2023-10-31T13:00:12;0.25;;;0.25;;
17947;SDS011;9099;47.958;11.366;2023-10-31T13:02:42;1.10;;;0.60;;
17947;SDS011;9099;47.958;11.366;2023-10-31T13:05:10;1.23;;;0.43;;
17947;SDS011;9099;47.958;11.366;2023-10-31T13:07:39;0.30;;;0.22;;
17947;SDS011;9099;47.958;11.366;2023-10-31T13:10:13;0.20;;;0.20;;
17947;SDS011;9099;47.958;11.366;2023-10-31T13:12:43;0.30;;;0.28;;
17947;SDS011;9099;47.958;11.366;2023-10-31T13:15:11;0.20;;;0.20;;
17947;SDS011;9099;47.958;11.366;2023-10-31T13:17:39;0.25;;;0.25;;
17947;SDS011;9099;47.958;11.366;2023-10-31T13:20:08;0.40;;;0.40;;
17947;SDS011;9099;47.958;11.366;2023-10-31T13:22:35;1.33;;;1.23;;
17947;SDS011;9099;47.958;11.366;2023-10-31T13:25:03;0.68;;;0.57;;
17947;SDS011;9099;47.958;11.366;2023-10-31T13:27:32;0.55;;;0.55;;
17947;SDS011;9099;47.958;11.366;2023-10-31T13:30:00;0.38;;;0.30;;
17947;SDS011;9099;47.958;11.366;2023-10-31T13:32:27;0.30;;;0.30;;
17947;SDS011;9099;47.958;11.366;2023-10-31T13:34:54;0.52;;;0.30;;
17947;SDS011;9099;47.958;11.366;2023-10-31T13:37:20;0.77;;;0.32;;
17947;SDS011;9099;47.958;11.366;2023-10-31T13:39:47;0.68;;;0.45;;
17947;SDS011;9099;47.958;11.366;2023-10-31T13:42:15;0.30;;;0.30;;
17947;SDS011;9099;47.958;11.366;2023-10-31T13:44:42;0.25;;;0.20;;
17947;SDS011;9099;47.958;11.366;2023-10-31T13:47:09;0.63;;;0.30;;
17947;SDS011;9099;47.958;11.366;2023-10-31T13:49:37;0.82;;;0.40;;
17947;SDS011;9099;47.958;11.366;2023-10-31T13:52:03;0.30;;;0.30;;
17947;SDS011;9099;47.958;11.366;2023-10-31T13:54:31;1.55;;;0.70;;
17947;SDS011;9099;47.958;11.366;2023-10-31T13:56:58;1.02;;;0.43;;
17947;SDS011;9099;47.958;11.366;2023-10-31T13:59:26;0.50;;;0.50;;
17947;SDS011;9099;47.958;11.366;2023-10-31T14:01:53;0.60;;;0.60;;
17947;SDS011;9099;47.958;11.366;2023-10-31T14:04:20;1.45;;;0.73;;
17947;SDS011;9099;47.958;11.366;2023-10-31T14:06:47;0.43;;;0.43;;
17947;SDS011;9099;47.958;11.366;2023-10-31T14:09:14;1.80;;;0.40;;
17947;SDS011;9099;47.958;11.366;2023-10-31T14:11:41;0.65;;;0.65;;
17947;SDS011;9099;47.958;11.366;2023-10-31T14:14:08;0.50;;;0.50;;
17947;SDS011;9099;47.958;11.366;2023-10-31T14:16:37;1.25;;;0.60;;
17947;SDS011;9099;47.958;11.366;2023-10-31T14:19:04;3.20;;;0.70;;
17947;SDS011;9099;47.958;11.366;2023-10-31T14:21:32;0.80;;;0.50;;
17947;SDS011;9099;47.958;11.366;2023-10-31T14:24:01;1.48;;;0.38;;
17947;SDS011;9099;47.958;11.366;2023-10-31T14:26:28;1.02;;;0.40;;
17947;SDS011;9099;47.958;11.366;2023-10-31T14:28:57;1.27;;;0.70;;
17947;SDS011;9099;47.958;11.366;2023-10-31T14:31:24;0.73;;;0.57;;
17947;SDS011;9099;47.958;11.366;2023-10-31T14:33:53;0.85;;;0.52;;
17947;SDS011;9099;47.958;11.366;2023-10-31T14:36:19;0.50;;;0.50;;
17947;SDS011;9099;47.958;11.366;2023-10-31T14:38:46;0.68;;;0.57;;
17947;SDS011;9099;47.958;11.366;2023-10-31T14:41:13;1.95;;;0.40;;
17947;SDS011;9099;47.958;11.366;2023-10-31T14:43:40;1.48;;;0.50;;
17947;SDS011;9099;47.958;11.366;2023-10-31T14:46:07;0.60;;;0.55;;
17947;SDS011;9099;47.958;11.366;2023-10-31T14:48:34;0.47;;;0.38;;
17947;SDS011;9099;47.958;11.366;2023-10-31T14:51:03;0.60;;;0.40;;